createdAt,value
2018-07-05T00:01:37.261Z,99.90
2018-07-05T00:04:16.890Z,99.90
2018-07-05T00:06:56.641Z,99.90
2018-07-05T00:09:36.384Z,99.90
2018-07-05T00:14:49.569Z,99.90
2018-07-05T00:17:29.288Z,99.90
2018-07-05T00:20:08.995Z,99.90
2018-07-05T00:22:48.629Z,99.90
2018-07-05T00:25:28.376Z,99.90
2018-07-05T00:28:08.101Z,99.90
2018-07-05T00:30:47.852Z,99.90
2018-07-05T00:33:27.438Z,99.90
2018-07-05T00:36:07.220Z,99.90
2018-07-05T00:38:46.908Z,99.90
2018-07-05T00:41:26.526Z,99.90
2018-07-05T00:44:06.356Z,99.90
2018-07-05T00:46:46.048Z,99.90
2018-07-05T00:49:25.668Z,99.90
2018-07-05T00:52:05.427Z,99.90
2018-07-05T00:54:45.038Z,99.90
2018-07-05T00:57:24.664Z,99.90
2018-07-05T01:00:04.286Z,99.90
2018-07-05T01:02:43.974Z,99.90
2018-07-05T01:05:23.641Z,99.90
2018-07-05T01:08:03.286Z,99.90
2018-07-05T01:10:42.910Z,99.90
2018-07-05T01:13:22.593Z,99.90
2018-07-05T01:16:02.333Z,99.90
2018-07-05T01:18:42.014Z,99.90
2018-07-05T01:21:21.696Z,99.90
2018-07-05T01:24:01.485Z,99.90
2018-07-05T01:26:41.087Z,99.90
2018-07-05T01:29:20.785Z,99.90
2018-07-05T01:32:00.389Z,99.90
2018-07-05T01:34:40.194Z,99.90
2018-07-05T01:39:53.267Z,99.90
2018-07-05T01:42:32.977Z,99.90
2018-07-05T01:45:12.913Z,99.90
2018-07-05T01:47:52.813Z,99.90
2018-07-05T01:50:32.678Z,99.90
2018-07-05T01:53:12.473Z,99.90
2018-07-05T01:55:52.103Z,99.90
2018-07-05T01:58:31.769Z,99.90
2018-07-05T02:01:11.414Z,99.90
2018-07-05T02:03:51.060Z,99.90
2018-07-05T02:06:30.793Z,99.90
2018-07-05T02:09:10.415Z,99.90
2018-07-05T02:11:49.964Z,99.90
2018-07-05T02:14:29.817Z,99.90
2018-07-05T02:17:09.477Z,99.90
2018-07-05T02:19:49.036Z,99.90
2018-07-05T02:22:28.720Z,99.90
2018-07-05T02:25:08.232Z,99.90
2018-07-05T02:27:47.994Z,99.90
2018-07-05T02:30:27.620Z,99.90
2018-07-05T02:33:07.522Z,99.90
2018-07-05T02:35:47.245Z,99.90
2018-07-05T02:38:26.948Z,99.90
2018-07-05T02:41:06.579Z,99.90
2018-07-05T02:43:46.200Z,99.90
2018-07-05T02:46:25.877Z,99.90
2018-07-05T02:49:05.693Z,99.90
2018-07-05T02:51:45.396Z,99.90
2018-07-05T02:54:25.121Z,99.90
2018-07-05T02:57:04.750Z,99.90
2018-07-05T02:59:44.300Z,99.90
2018-07-05T03:02:23.932Z,99.90
2018-07-05T03:05:03.648Z,99.90
2018-07-05T03:07:43.509Z,99.90
2018-07-05T03:10:23.304Z,99.90
2018-07-05T03:13:02.997Z,99.90
2018-07-05T03:15:42.732Z,99.90
2018-07-05T03:18:22.293Z,99.90
2018-07-05T03:21:02.009Z,99.90
2018-07-05T03:23:41.736Z,99.90
2018-07-05T03:26:21.405Z,99.90
2018-07-05T03:29:01.141Z,99.90
2018-07-05T03:31:40.720Z,99.90
2018-07-05T03:34:20.325Z,99.90
2018-07-05T03:37:00.039Z,99.90
2018-07-05T03:39:39.575Z,99.90
2018-07-05T03:42:19.440Z,99.90
2018-07-05T03:44:59.008Z,99.90
2018-07-05T03:47:38.802Z,99.90
2018-07-05T03:50:18.281Z,99.90
2018-07-05T03:52:57.994Z,99.90
2018-07-05T03:55:37.684Z,99.90
2018-07-05T03:58:17.420Z,99.90
2018-07-05T04:00:57.073Z,99.90
2018-07-05T04:03:36.700Z,99.90
2018-07-05T04:06:16.385Z,99.90
2018-07-05T04:08:55.961Z,99.90
2018-07-05T04:11:35.692Z,99.90
2018-07-05T04:14:15.421Z,99.90
2018-07-05T04:16:55.030Z,99.90
2018-07-05T04:19:39.270Z,99.90
2018-07-05T04:22:18.976Z,99.90
2018-07-05T04:24:58.677Z,99.90
2018-07-05T04:27:38.493Z,99.90
2018-07-05T04:30:18.144Z,99.90
2018-07-05T04:32:57.856Z,99.90
2018-07-05T04:35:37.495Z,99.90
2018-07-05T04:38:17.176Z,99.90
2018-07-05T04:40:56.993Z,99.90
2018-07-05T04:43:36.705Z,99.90
2018-07-05T04:46:16.229Z,99.90
2018-07-05T04:48:55.994Z,99.90
2018-07-05T04:51:36.038Z,99.90
2018-07-05T04:54:15.650Z,99.90
2018-07-05T04:56:55.140Z,99.90
2018-07-05T04:59:34.953Z,99.90
2018-07-05T05:02:14.676Z,99.90
2018-07-05T05:04:54.331Z,99.90
2018-07-05T05:07:33.984Z,99.90
2018-07-05T05:10:13.757Z,99.90
2018-07-05T05:12:53.324Z,99.90
2018-07-05T05:15:32.998Z,99.90
2018-07-05T05:18:12.555Z,99.90
2018-07-05T05:20:52.205Z,99.90
2018-07-05T05:23:31.945Z,99.90
2018-07-05T05:26:11.583Z,99.90
2018-07-05T05:28:51.378Z,99.90
2018-07-05T05:31:31.136Z,99.90
2018-07-05T05:36:44.549Z,99.90
2018-07-05T05:39:24.146Z,99.90
2018-07-05T05:42:04.043Z,99.90
2018-07-05T05:44:43.997Z,99.90
2018-07-05T05:47:23.668Z,99.90
2018-07-05T05:50:03.270Z,99.90
2018-07-05T05:52:42.966Z,97.90
2018-07-05T05:55:22.608Z,95.40
2018-07-05T05:58:02.202Z,92.00
2018-07-05T06:00:41.940Z,88.80
2018-07-05T06:03:21.763Z,86.40
2018-07-05T06:06:01.212Z,84.80
2018-07-05T06:08:41.017Z,80.80
2018-07-05T06:11:20.683Z,77.20
2018-07-05T06:14:00.661Z,73.50
2018-07-05T06:16:40.222Z,71.00
2018-07-05T06:19:19.863Z,69.00
2018-07-05T06:21:59.453Z,70.10
2018-07-05T06:24:39.053Z,71.20
2018-07-05T06:27:18.673Z,69.50
2018-07-05T06:29:58.528Z,67.90
2018-07-05T06:32:38.115Z,70.40
2018-07-05T06:35:17.813Z,66.50
2018-07-05T06:37:57.688Z,62.80
2018-07-05T06:40:37.501Z,61.10
2018-07-05T06:43:17.157Z,62.70
2018-07-05T06:45:56.830Z,60.30
2018-07-05T06:48:36.565Z,58.60
2018-07-05T06:51:16.373Z,59.00
2018-07-05T06:53:56.208Z,57.20
2018-07-05T06:56:35.959Z,59.70
2018-07-05T06:59:16.439Z,59.10
2018-07-05T07:01:56.024Z,56.20
2018-07-05T07:04:35.685Z,56.10
2018-07-05T07:07:15.344Z,54.20
2018-07-05T07:09:54.949Z,53.50
2018-07-05T07:12:34.849Z,52.90
2018-07-05T07:15:14.981Z,54.10
2018-07-05T07:17:54.784Z,53.90
2018-07-05T07:20:34.641Z,53.30
2018-07-05T07:23:14.336Z,53.10
2018-07-05T07:25:54.196Z,55.40
2018-07-05T07:28:33.806Z,56.30
2018-07-05T07:31:13.687Z,56.10
2018-07-05T07:33:53.405Z,58.50
2018-07-05T07:36:32.994Z,57.40
2018-07-05T07:39:12.560Z,60.00
2018-07-05T07:41:47.168Z,58.90
2018-07-05T07:44:15.113Z,59.00
2018-07-05T07:46:42.421Z,56.10
2018-07-05T07:49:09.732Z,53.80
2018-07-05T07:51:37.195Z,53.10
2018-07-05T07:54:04.488Z,53.10
2018-07-05T07:56:31.830Z,54.80
2018-07-05T07:58:59.199Z,53.90
2018-07-05T08:01:26.553Z,52.70
2018-07-05T08:03:53.871Z,51.60
2018-07-05T08:06:21.206Z,51.30
2018-07-05T08:08:48.509Z,51.40
2018-07-05T08:11:15.869Z,53.70
2018-07-05T08:13:43.172Z,56.90
2018-07-05T08:16:10.518Z,57.70
2018-07-05T08:18:37.825Z,60.60
2018-07-05T08:21:05.163Z,60.50
2018-07-05T08:23:32.465Z,62.20
2018-07-05T08:25:59.802Z,61.20
2018-07-05T08:28:27.114Z,61.20
2018-07-05T08:30:54.468Z,62.10
2018-07-05T08:33:21.781Z,60.10
2018-07-05T08:35:49.111Z,59.40
2018-07-05T08:38:16.405Z,60.60
2018-07-05T08:40:43.761Z,61.30
2018-07-05T08:43:11.058Z,62.50
2018-07-05T08:45:38.354Z,63.40
2018-07-05T08:48:05.696Z,65.20
2018-07-05T08:50:33.005Z,64.00
2018-07-05T08:53:00.361Z,65.60
2018-07-05T08:55:27.669Z,67.10
2018-07-05T08:57:55.021Z,66.50
2018-07-05T09:00:22.336Z,65.40
2018-07-05T09:02:49.699Z,65.10
2018-07-05T09:05:17.075Z,65.60
2018-07-05T09:07:44.394Z,65.10
2018-07-05T09:10:11.707Z,64.70
2018-07-05T09:15:06.730Z,64.50
2018-07-05T09:17:34.135Z,64.10
2018-07-05T09:20:01.382Z,62.80
2018-07-05T09:22:28.733Z,62.90
2018-07-05T09:24:56.041Z,62.50
2018-07-05T09:27:23.439Z,63.30
2018-07-05T09:29:50.744Z,64.10
2018-07-05T09:32:18.065Z,62.50
2018-07-05T09:34:45.399Z,63.80
2018-07-05T09:37:12.793Z,64.40
2018-07-05T09:39:40.064Z,67.10
2018-07-05T09:42:07.365Z,66.70
2018-07-05T09:44:34.739Z,66.90
2018-07-05T09:47:02.113Z,64.60
2018-07-05T09:49:29.432Z,63.90
2018-07-05T09:51:56.736Z,63.70
2018-07-05T09:54:24.076Z,64.50
2018-07-05T09:56:51.519Z,65.10
2018-07-05T09:59:18.872Z,66.20
2018-07-05T10:01:46.233Z,66.60
2018-07-05T10:04:13.582Z,66.00
2018-07-05T10:06:40.905Z,65.90
2018-07-05T10:09:08.258Z,64.30
2018-07-05T10:11:35.601Z,64.50
2018-07-05T10:14:02.933Z,65.70
2018-07-05T10:16:30.247Z,67.60
2018-07-05T10:18:57.636Z,68.00
2018-07-05T10:21:24.957Z,67.50
2018-07-05T10:23:52.332Z,67.80
2018-07-05T10:26:19.666Z,68.00
2018-07-05T10:28:59.505Z,67.60
2018-07-05T10:31:39.526Z,66.50
2018-07-05T10:34:06.866Z,66.10
2018-07-05T10:36:34.177Z,66.00
2018-07-05T10:39:01.514Z,63.20
2018-07-05T10:41:41.213Z,60.90
2018-07-05T10:44:20.935Z,60.70
2018-07-05T10:47:00.597Z,60.40
2018-07-05T10:49:40.337Z,59.70
2018-07-05T10:52:19.960Z,59.20
2018-07-05T10:54:59.553Z,57.70
2018-07-05T10:57:39.306Z,57.70
2018-07-05T11:00:18.896Z,58.10
2018-07-05T11:02:58.524Z,59.50
2018-07-05T11:05:38.253Z,61.60
2018-07-05T11:08:17.820Z,60.80
2018-07-05T11:10:57.544Z,59.90
2018-07-05T11:13:37.748Z,59.40
2018-07-05T11:16:17.810Z,58.90
2018-07-05T11:18:57.535Z,59.40
2018-07-05T11:21:37.044Z,59.90
2018-07-05T11:24:16.737Z,60.70
2018-07-05T11:26:56.327Z,60.50
2018-07-05T11:29:36.102Z,61.00
2018-07-05T11:32:15.637Z,60.90
2018-07-05T11:34:55.290Z,63.10
2018-07-05T11:37:34.905Z,62.10
2018-07-05T11:40:14.605Z,62.50
2018-07-05T11:42:54.217Z,61.60
2018-07-05T11:45:33.906Z,61.00
2018-07-05T11:48:13.461Z,63.60
2018-07-05T11:53:26.965Z,63.00
2018-07-05T11:56:06.605Z,61.30
2018-07-05T11:58:46.287Z,60.90
2018-07-05T12:01:26.035Z,62.80
2018-07-05T12:04:05.723Z,62.70
2018-07-05T12:06:45.454Z,62.80
2018-07-05T12:09:25.104Z,63.00
2018-07-05T12:12:04.837Z,62.80
2018-07-05T12:14:44.680Z,61.10
2018-07-05T12:17:24.297Z,61.40
2018-07-05T12:20:03.845Z,61.60
2018-07-05T12:22:43.597Z,63.50
2018-07-05T12:25:23.253Z,64.50
2018-07-05T12:28:02.905Z,64.60
2018-07-05T12:30:42.733Z,64.80
2018-07-05T12:33:22.360Z,65.30
2018-07-05T12:36:02.088Z,64.80
2018-07-05T12:38:41.729Z,64.60
2018-07-05T12:41:21.428Z,64.40
2018-07-05T12:44:01.027Z,63.70
2018-07-05T12:46:40.687Z,63.70
2018-07-05T12:49:20.373Z,62.80
2018-07-05T12:52:00.013Z,61.00
2018-07-05T12:54:39.805Z,59.80
2018-07-05T12:57:19.493Z,58.90
2018-07-05T12:59:59.059Z,59.60
2018-07-05T13:02:38.792Z,59.10
2018-07-05T13:05:18.623Z,59.10
2018-07-05T13:07:58.160Z,58.70
2018-07-05T13:10:37.920Z,58.70
2018-07-05T13:13:17.738Z,59.00
2018-07-05T13:15:57.389Z,58.10
2018-07-05T13:18:37.124Z,58.60
2018-07-05T13:21:16.842Z,59.00
2018-07-05T13:23:56.513Z,60.00
2018-07-05T13:26:36.268Z,60.50
2018-07-05T13:29:15.647Z,60.00
2018-07-05T13:31:55.251Z,61.10
2018-07-05T13:34:35.120Z,62.00
2018-07-05T13:37:14.693Z,61.60
2018-07-05T13:39:54.303Z,60.70
2018-07-05T13:42:34.025Z,61.60
2018-07-05T13:45:13.584Z,60.20
2018-07-05T13:47:53.205Z,60.00
2018-07-05T13:50:32.869Z,59.80
2018-07-05T13:53:12.605Z,59.60
2018-07-05T13:55:52.314Z,59.20
2018-07-05T13:58:31.837Z,58.60
2018-07-05T14:01:11.402Z,58.80
2018-07-05T14:03:51.122Z,57.70
2018-07-05T14:06:31.001Z,57.10
2018-07-05T14:09:10.941Z,56.20
2018-07-05T14:11:50.560Z,55.50
2018-07-05T14:17:04.112Z,55.10
2018-07-05T14:19:43.593Z,55.30
2018-07-05T14:22:23.203Z,54.50
2018-07-05T14:25:02.853Z,54.50
2018-07-05T14:27:42.522Z,53.20
2018-07-05T14:30:22.189Z,53.50
2018-07-05T14:33:01.994Z,54.80
2018-07-05T14:35:41.601Z,54.70
2018-07-05T14:38:21.194Z,54.20
2018-07-05T14:41:00.777Z,54.70
2018-07-05T14:43:40.708Z,55.10
2018-07-05T14:46:20.492Z,55.70
2018-07-05T14:49:00.369Z,55.80
2018-07-05T14:51:39.980Z,56.90
2018-07-05T14:54:19.453Z,57.60
2018-07-05T14:56:59.144Z,57.60
2018-07-05T14:59:38.632Z,57.70
2018-07-05T15:02:18.181Z,57.70
2018-07-05T15:04:57.745Z,57.70
2018-07-05T15:07:37.394Z,57.50
2018-07-05T15:10:17.129Z,56.50
2018-07-05T15:12:56.834Z,56.30
2018-07-05T15:15:36.589Z,56.90
2018-07-05T15:18:16.297Z,55.70
2018-07-05T15:20:55.833Z,56.60
2018-07-05T15:23:35.622Z,56.50
2018-07-05T15:26:15.418Z,56.40
2018-07-05T15:28:55.237Z,56.60
2018-07-05T15:31:34.696Z,57.10
2018-07-05T15:34:14.224Z,57.50
2018-07-05T15:36:53.853Z,57.60
2018-07-05T15:39:33.503Z,56.90
2018-07-05T15:42:12.988Z,56.80
2018-07-05T15:44:52.794Z,57.10
2018-07-05T15:47:32.574Z,57.40
2018-07-05T15:50:12.269Z,57.40
2018-07-05T15:52:51.844Z,57.50
2018-07-05T15:55:31.445Z,58.20
2018-07-05T15:58:11.058Z,58.50
2018-07-05T16:00:50.913Z,58.60
2018-07-05T16:03:30.632Z,58.90
2018-07-05T16:06:10.217Z,59.30
2018-07-05T16:08:49.744Z,59.90
2018-07-05T16:11:29.346Z,60.30
2018-07-05T16:14:09.037Z,60.50
2018-07-05T16:16:48.720Z,60.70
2018-07-05T16:19:28.493Z,60.60
2018-07-05T16:22:08.081Z,60.80
2018-07-05T16:24:47.591Z,61.00
2018-07-05T16:27:27.382Z,61.80
2018-07-05T16:30:07.031Z,66.00
2018-07-05T16:32:46.613Z,69.80
2018-07-05T16:35:26.189Z,73.20
2018-07-05T16:38:05.969Z,74.80
2018-07-05T16:40:45.589Z,75.70
2018-07-05T16:43:25.385Z,77.60
2018-07-05T16:46:05.096Z,79.90
2018-07-05T16:48:44.753Z,82.50
2018-07-05T16:51:24.292Z,84.90
2018-07-05T16:54:04.021Z,86.10
2018-07-05T16:56:43.650Z,88.00
2018-07-05T16:59:23.296Z,89.30
2018-07-05T17:02:02.942Z,90.20
2018-07-05T17:04:42.782Z,91.00
2018-07-05T17:07:22.510Z,91.30
2018-07-05T17:10:02.056Z,91.10
2018-07-05T17:12:41.661Z,91.20
2018-07-05T17:15:21.469Z,91.30
2018-07-05T17:18:01.049Z,91.10
2018-07-05T17:20:40.897Z,90.80
2018-07-05T17:23:20.648Z,90.60
2018-07-05T17:26:00.354Z,91.20
2018-07-05T17:28:39.933Z,91.40
2018-07-05T17:31:19.661Z,91.60
2018-07-05T17:33:59.245Z,91.80
2018-07-05T17:36:38.980Z,92.20
2018-07-05T17:39:18.591Z,92.80
2018-07-05T17:41:58.315Z,93.00
2018-07-05T17:44:38.122Z,93.00
2018-07-05T17:47:18.081Z,93.00
2018-07-05T17:49:57.717Z,93.20
2018-07-05T17:52:37.329Z,93.40
2018-07-05T17:55:17.049Z,93.50
2018-07-05T17:57:56.707Z,93.60
2018-07-05T18:00:36.332Z,94.10
2018-07-05T18:03:16.029Z,94.20
2018-07-05T18:05:55.576Z,94.70
2018-07-05T18:08:35.297Z,94.80
2018-07-05T18:11:14.990Z,94.90
2018-07-05T18:13:54.918Z,95.00
2018-07-05T18:16:34.694Z,95.60
2018-07-05T18:19:14.882Z,95.50
2018-07-05T18:21:54.481Z,95.70
2018-07-05T18:24:34.111Z,95.90
2018-07-05T18:27:13.768Z,96.30
2018-07-05T18:29:53.445Z,96.60
2018-07-05T18:32:33.141Z,97.20
2018-07-05T18:35:13.044Z,97.60
2018-07-05T18:37:52.831Z,98.00
2018-07-05T18:40:32.468Z,98.40
2018-07-05T18:43:12.153Z,98.80
2018-07-05T18:45:51.927Z,99.30
2018-07-05T18:48:31.646Z,99.90
2018-07-05T18:51:11.312Z,99.90
2018-07-05T18:53:51.162Z,99.90
2018-07-05T18:56:30.766Z,99.90
2018-07-05T18:59:10.273Z,99.90
2018-07-05T19:01:50.078Z,99.90
2018-07-05T19:04:29.839Z,99.90
2018-07-05T19:07:09.528Z,99.90
2018-07-05T19:09:49.250Z,99.90
2018-07-05T19:12:28.930Z,99.90
2018-07-05T19:15:08.748Z,99.90
2018-07-05T19:17:48.587Z,99.90
2018-07-05T19:20:28.161Z,99.90
2018-07-05T19:23:07.763Z,99.90
2018-07-05T19:25:47.894Z,99.90
2018-07-05T19:28:27.713Z,99.90
2018-07-05T19:31:07.368Z,99.90
2018-07-05T19:33:46.993Z,99.90
2018-07-05T19:36:26.666Z,99.90
2018-07-05T19:39:07.737Z,99.90
2018-07-05T19:41:47.524Z,99.90
2018-07-05T19:44:27.214Z,99.90
2018-07-05T19:47:07.219Z,99.90
2018-07-05T19:52:20.890Z,99.90
2018-07-05T19:55:00.830Z,99.90
2018-07-05T19:57:40.539Z,99.90
2018-07-05T20:00:20.386Z,99.90
2018-07-05T20:02:59.994Z,99.90
2018-07-05T20:05:39.702Z,99.90
2018-07-05T20:08:19.398Z,99.90
2018-07-05T20:11:00.597Z,99.90
2018-07-05T20:13:41.467Z,99.90
2018-07-05T20:16:21.428Z,99.90
2018-07-05T20:19:01.158Z,99.90
2018-07-05T20:21:40.877Z,99.90
2018-07-05T20:24:20.626Z,99.90
2018-07-05T20:27:00.321Z,99.90
2018-07-05T20:29:40.100Z,99.90
2018-07-05T20:32:19.818Z,99.90
2018-07-05T20:34:59.462Z,99.90
2018-07-05T20:37:39.121Z,99.90
2018-07-05T20:40:18.674Z,99.90
2018-07-05T20:42:59.864Z,99.90
2018-07-05T20:48:13.665Z,99.90
2018-07-05T20:50:53.256Z,99.90
2018-07-05T20:53:32.880Z,99.90
2018-07-05T20:56:12.601Z,99.90
2018-07-05T20:58:52.227Z,99.90
2018-07-05T21:01:31.879Z,99.90
2018-07-05T21:04:11.609Z,99.90
2018-07-05T21:06:51.152Z,99.90
2018-07-05T21:09:31.379Z,99.90
2018-07-05T21:12:10.945Z,99.90
2018-07-05T21:14:50.660Z,99.90
2018-07-05T21:17:30.483Z,99.90
2018-07-05T21:20:10.292Z,99.90
2018-07-05T21:22:49.897Z,99.90
2018-07-05T21:25:29.518Z,99.90
2018-07-05T21:28:09.052Z,99.90
2018-07-05T21:30:48.808Z,99.90
2018-07-05T21:33:28.512Z,99.90
2018-07-05T21:36:08.312Z,99.90
2018-07-05T21:38:48.152Z,99.90
2018-07-05T21:41:28.000Z,99.90
2018-07-05T21:44:07.686Z,99.90
2018-07-05T21:49:20.979Z,99.90
2018-07-05T21:52:00.658Z,99.90
2018-07-05T21:54:40.297Z,99.90
2018-07-05T21:57:19.909Z,99.90
2018-07-05T21:59:59.631Z,99.90
2018-07-05T22:02:39.286Z,99.90
2018-07-05T22:05:18.911Z,99.90
2018-07-05T22:07:58.624Z,99.90
2018-07-05T22:10:38.277Z,99.90
2018-07-05T22:13:17.994Z,99.90
2018-07-05T22:15:57.617Z,99.90
2018-07-05T22:18:42.802Z,99.90
2018-07-05T22:21:22.487Z,99.90
2018-07-05T22:24:07.436Z,99.90
2018-07-05T22:26:48.017Z,99.90
2018-07-05T22:29:33.232Z,99.90
2018-07-05T22:32:12.981Z,99.90
2018-07-05T22:34:52.881Z,99.90
2018-07-05T22:37:32.498Z,99.90
2018-07-05T22:40:12.101Z,99.90
2018-07-05T22:42:51.869Z,99.90
2018-07-05T22:45:31.466Z,99.90
2018-07-05T22:48:11.046Z,99.90
2018-07-05T22:50:50.889Z,99.90
2018-07-05T22:53:30.614Z,99.90
2018-07-05T22:56:10.237Z,99.90
2018-07-05T22:58:49.960Z,99.90
2018-07-05T23:01:29.642Z,99.90
2018-07-05T23:04:09.175Z,99.90
2018-07-05T23:06:48.853Z,99.90
2018-07-05T23:09:28.489Z,99.90
2018-07-05T23:12:08.250Z,99.90
2018-07-05T23:14:47.841Z,99.90
2018-07-05T23:17:27.620Z,99.90
2018-07-05T23:20:07.469Z,99.90
2018-07-05T23:22:47.111Z,99.90
2018-07-05T23:25:26.713Z,99.90
2018-07-05T23:28:06.488Z,99.90
2018-07-05T23:30:46.137Z,99.90
2018-07-05T23:33:25.845Z,99.90
2018-07-05T23:36:05.564Z,99.90
2018-07-05T23:38:45.186Z,99.90
2018-07-05T23:41:24.905Z,99.90
2018-07-05T23:44:04.652Z,99.90
2018-07-05T23:46:44.293Z,99.90
2018-07-05T23:49:24.023Z,99.90
2018-07-05T23:52:03.769Z,99.90
2018-07-05T23:54:43.413Z,99.90
2018-07-05T23:57:23.132Z,99.90
